Saint Louis, MO (63119)

4:41 PM CST on December 27, 2014 (GMT -0600)
Webster Groves | Change Station
CLOSE
Current Station
Personal Weather Station
Location: Webster Groves, MO
Elevation: 571 ft
Nearby Weather Stations

Elev 571 ft 38.59 °N, 90.35 °W | Updated 1 minute ago

Rain
Rain
36.3 °F
Feels Like 33 °F
N
4.0
Wind Variable Wind from WSW

Today
High -- | Low -- °F
--% Chance of Precip.
Yesterday
High -- | Low -- °F
Precip. -- in
7:17 AM 4:47 PM
Waxing Crescent, 41% visible
Pressure 30.17 in
Visibility 6.0 miles
Clouds Few 700 ft
Scattered Clouds 1000 ft
Overcast 7500 ft
Windchill 33 °F
Dew Point 36 °F
Humidity 97%
Rainfall 0.16 in
Snow Depth Not available.
UV 0 out of 12
Pollen 2.30 out of 12
Air Quality Not available.
Flu Activity Not available.
SPECI KSTL 272233Z 29007KT 6SM -PLRA BR FEW007 SCT010 OVC075 03/01 A3017 RMK AO2 PLB32 P0001

More Conditions Fewer Conditions

Pressure 30.17 in
Visibility 6.0 miles
Clouds Few 700 ft
Scattered Clouds 1000 ft
Overcast 7500 ft
Windchill 33 °F
Dew Point 36 °F
Humidity 97%
Rainfall 0.16 in
Snow Depth Not available.
UV 0 out of 12
Pollen 2.30 out of 12
Air Quality Not available.
Flu Activity Not available.
SPECI KSTL 272233Z 29007KT 6SM -PLRA BR FEW007 SCT010 OVC075 03/01 A3017 RMK AO2 PLB32 P0001

More Conditions Fewer Conditions

10-Day Weather Forecast

Almanac

Astronomy

Dec. 27, 2014 Rise Set
Actual Time
Civil Twilight
Nautical Twilight
Astronomical Twilight
Moon
Length of Visible Light
Length of Day
Tomorrow will be .
, % of the Moon is Illuminated

Today's Extremes

State Highs State Lows

Community

WunderPhotos

Upload Photos

1,781,098 photos uploaded!

WunderBlogs® & News

Nearby

Air Quality

  Air Quality AQ Index Pollutant
Not available.

Snow Depth

Station Depth Elevation

Earthquake Activity

City Distance Mag. Time & Date
Minimum magnitude displayed is 2.5.

Coastal Water Temperatures

Place Temperature

Nearby Weather Stations